sensor_id;sensor_type;location;lat;lon;timestamp;P1;durP1;ratioP1;P2;durP2;ratioP2
68940;SDS011;55982;51.476;7.552;2022-09-29T00:01:33;23.80;;;15.35;;
68940;SDS011;55982;51.476;7.552;2022-09-29T00:03:58;28.15;;;16.48;;
68940;SDS011;55982;51.476;7.552;2022-09-29T00:06:23;27.10;;;16.77;;
68940;SDS011;55982;51.476;7.552;2022-09-29T00:08:49;29.05;;;16.67;;
68940;SDS011;55982;51.476;7.552;2022-09-29T00:11:15;29.33;;;16.45;;
68940;SDS011;55982;51.476;7.552;2022-09-29T00:13:42;26.75;;;16.42;;
68940;SDS011;55982;51.476;7.552;2022-09-29T00:16:09;26.65;;;16.65;;
68940;SDS011;55982;51.476;7.552;2022-09-29T00:18:34;27.67;;;17.13;;
68940;SDS011;55982;51.476;7.552;2022-09-29T00:21:01;30.30;;;17.77;;
68940;SDS011;55982;51.476;7.552;2022-09-29T00:23:29;28.25;;;16.65;;
68940;SDS011;55982;51.476;7.552;2022-09-29T00:26:02;26.10;;;16.48;;
68940;SDS011;55982;51.476;7.552;2022-09-29T00:28:33;28.98;;;18.40;;
68940;SDS011;55982;51.476;7.552;2022-09-29T00:31:00;30.73;;;18.17;;
68940;SDS011;55982;51.476;7.552;2022-09-29T00:33:31;32.13;;;18.55;;
68940;SDS011;55982;51.476;7.552;2022-09-29T00:35:58;34.17;;;18.00;;
68940;SDS011;55982;51.476;7.552;2022-09-29T00:38:25;35.85;;;19.27;;
68940;SDS011;55982;51.476;7.552;2022-09-29T00:40:53;34.25;;;18.40;;
68940;SDS011;55982;51.476;7.552;2022-09-29T00:43:21;28.75;;;17.23;;
68940;SDS011;55982;51.476;7.552;2022-09-29T00:45:49;28.35;;;17.27;;
68940;SDS011;55982;51.476;7.552;2022-09-29T00:48:19;25.90;;;17.20;;
68940;SDS011;55982;51.476;7.552;2022-09-29T00:50:49;26.92;;;17.05;;
68940;SDS011;55982;51.476;7.552;2022-09-29T00:53:17;28.88;;;17.70;;
68940;SDS011;55982;51.476;7.552;2022-09-29T00:56:05;29.42;;;18.27;;
68940;SDS011;55982;51.476;7.552;2022-09-29T00:58:39;27.60;;;17.95;;
68940;SDS011;55982;51.476;7.552;2022-09-29T01:01:08;29.15;;;17.23;;
68940;SDS011;55982;51.476;7.552;2022-09-29T01:03:37;28.25;;;17.02;;
68940;SDS011;55982;51.476;7.552;2022-09-29T01:08:45;29.15;;;17.10;;
68940;SDS011;55982;51.476;7.552;2022-09-29T01:11:12;29.05;;;17.88;;
68940;SDS011;55982;51.476;7.552;2022-09-29T01:13:38;27.45;;;17.73;;
68940;SDS011;55982;51.476;7.552;2022-09-29T01:16:05;33.92;;;19.15;;
68940;SDS011;55982;51.476;7.552;2022-09-29T01:18:31;31.60;;;17.95;;
68940;SDS011;55982;51.476;7.552;2022-09-29T01:35:25;36.33;;;19.80;;
68940;SDS011;55982;51.476;7.552;2022-09-29T01:38:11;38.70;;;20.98;;
68940;SDS011;55982;51.476;7.552;2022-09-29T01:43:23;38.42;;;22.30;;
68940;SDS011;55982;51.476;7.552;2022-09-29T01:45:58;44.90;;;23.15;;
68940;SDS011;55982;51.476;7.552;2022-09-29T01:48:37;45.40;;;24.10;;
68940;SDS011;55982;51.476;7.552;2022-09-29T01:51:09;40.78;;;22.63;;
68940;SDS011;55982;51.476;7.552;2022-09-29T01:53:51;45.78;;;24.00;;
68940;SDS011;55982;51.476;7.552;2022-09-29T02:01:16;56.15;;;28.67;;
68940;SDS011;55982;51.476;7.552;2022-09-29T02:03:49;58.30;;;28.38;;
68940;SDS011;55982;51.476;7.552;2022-09-29T02:06:26;49.20;;;26.05;;
68940;SDS011;55982;51.476;7.552;2022-09-29T02:09:01;48.28;;;25.83;;
68940;SDS011;55982;51.476;7.552;2022-09-29T02:11:29;56.00;;;24.88;;
68940;SDS011;55982;51.476;7.552;2022-09-29T02:16:28;50.20;;;26.13;;
68940;SDS011;55982;51.476;7.552;2022-09-29T02:19:02;48.58;;;25.58;;
68940;SDS011;55982;51.476;7.552;2022-09-29T02:21:41;47.35;;;24.85;;
68940;SDS011;55982;51.476;7.552;2022-09-29T02:24:07;46.13;;;25.50;;
68940;SDS011;55982;51.476;7.552;2022-09-29T02:26:33;52.47;;;26.35;;
68940;SDS011;55982;51.476;7.552;2022-09-29T02:29:00;49.15;;;26.10;;
68940;SDS011;55982;51.476;7.552;2022-09-29T02:31:26;42.53;;;25.50;;
68940;SDS011;55982;51.476;7.552;2022-09-29T02:33:52;44.03;;;24.75;;
68940;SDS011;55982;51.476;7.552;2022-09-29T02:36:21;45.22;;;24.70;;
68940;SDS011;55982;51.476;7.552;2022-09-29T02:49:56;48.72;;;26.08;;
68940;SDS011;55982;51.476;7.552;2022-09-29T02:55:19;59.53;;;30.40;;
68940;SDS011;55982;51.476;7.552;2022-09-29T02:57:58;47.22;;;27.05;;
68940;SDS011;55982;51.476;7.552;2022-09-29T03:00:28;48.15;;;27.05;;
68940;SDS011;55982;51.476;7.552;2022-09-29T03:02:54;46.67;;;25.60;;
68940;SDS011;55982;51.476;7.552;2022-09-29T03:05:20;43.60;;;25.67;;
68940;SDS011;55982;51.476;7.552;2022-09-29T03:07:46;45.35;;;25.25;;
68940;SDS011;55982;51.476;7.552;2022-09-29T03:10:13;48.22;;;25.95;;
68940;SDS011;55982;51.476;7.552;2022-09-29T03:12:39;48.13;;;25.25;;
68940;SDS011;55982;51.476;7.552;2022-09-29T03:15:05;43.60;;;24.77;;
68940;SDS011;55982;51.476;7.552;2022-09-29T03:17:31;43.13;;;24.38;;
68940;SDS011;55982;51.476;7.552;2022-09-29T03:19:57;42.00;;;24.65;;
68940;SDS011;55982;51.476;7.552;2022-09-29T03:22:23;43.28;;;24.05;;
68940;SDS011;55982;51.476;7.552;2022-09-29T03:24:48;45.78;;;24.08;;
68940;SDS011;55982;51.476;7.552;2022-09-29T03:27:14;46.20;;;24.33;;
68940;SDS011;55982;51.476;7.552;2022-09-29T03:29:40;45.75;;;25.13;;
68940;SDS011;55982;51.476;7.552;2022-09-29T03:32:05;43.60;;;24.63;;
68940;SDS011;55982;51.476;7.552;2022-09-29T03:34:31;43.90;;;24.25;;
68940;SDS011;55982;51.476;7.552;2022-09-29T03:36:57;41.85;;;24.15;;
68940;SDS011;55982;51.476;7.552;2022-09-29T03:39:23;43.55;;;25.30;;
68940;SDS011;55982;51.476;7.552;2022-09-29T03:41:49;45.83;;;25.73;;
68940;SDS011;55982;51.476;7.552;2022-09-29T03:44:15;42.67;;;24.00;;
68940;SDS011;55982;51.476;7.552;2022-09-29T03:46:40;42.83;;;25.30;;
68940;SDS011;55982;51.476;7.552;2022-09-29T03:49:06;46.55;;;25.23;;
68940;SDS011;55982;51.476;7.552;2022-09-29T03:51:35;44.55;;;24.85;;
68940;SDS011;55982;51.476;7.552;2022-09-29T03:54:00;47.85;;;25.77;;
68940;SDS011;55982;51.476;7.552;2022-09-29T03:56:25;50.63;;;26.45;;
68940;SDS011;55982;51.476;7.552;2022-09-29T03:58:51;49.75;;;26.73;;
68940;SDS011;55982;51.476;7.552;2022-09-29T04:01:16;46.03;;;25.75;;
68940;SDS011;55982;51.476;7.552;2022-09-29T04:03:41;53.53;;;27.23;;
68940;SDS011;55982;51.476;7.552;2022-09-29T04:06:07;44.83;;;24.95;;
68940;SDS011;55982;51.476;7.552;2022-09-29T04:08:34;42.63;;;23.63;;
68940;SDS011;55982;51.476;7.552;2022-09-29T04:11:00;46.22;;;25.92;;
68940;SDS011;55982;51.476;7.552;2022-09-29T04:13:26;53.13;;;26.42;;
68940;SDS011;55982;51.476;7.552;2022-09-29T04:15:51;57.72;;;26.80;;
68940;SDS011;55982;51.476;7.552;2022-09-29T04:18:21;50.08;;;25.48;;
68940;SDS011;55982;51.476;7.552;2022-09-29T04:20:46;44.08;;;26.80;;
68940;SDS011;55982;51.476;7.552;2022-09-29T04:23:12;51.35;;;26.98;;
68940;SDS011;55982;51.476;7.552;2022-09-29T04:25:37;56.17;;;26.42;;
68940;SDS011;55982;51.476;7.552;2022-09-29T04:28:03;53.40;;;27.92;;
68940;SDS011;55982;51.476;7.552;2022-09-29T04:30:28;51.10;;;27.08;;
68940;SDS011;55982;51.476;7.552;2022-09-29T04:32:53;50.60;;;27.05;;
68940;SDS011;55982;51.476;7.552;2022-09-29T04:35:19;54.50;;;28.38;;
68940;SDS011;55982;51.476;7.552;2022-09-29T04:37:44;50.33;;;27.33;;
68940;SDS011;55982;51.476;7.552;2022-09-29T04:40:09;50.65;;;26.90;;
68940;SDS011;55982;51.476;7.552;2022-09-29T04:42:35;56.35;;;27.13;;
68940;SDS011;55982;51.476;7.552;2022-09-29T04:45:01;54.72;;;27.15;;
68940;SDS011;55982;51.476;7.552;2022-09-29T04:47:26;48.85;;;26.90;;
68940;SDS011;55982;51.476;7.552;2022-09-29T04:49:52;48.05;;;25.90;;
68940;SDS011;55982;51.476;7.552;2022-09-29T04:52:17;54.90;;;26.63;;
68940;SDS011;55982;51.476;7.552;2022-09-29T04:54:42;52.65;;;26.42;;
68940;SDS011;55982;51.476;7.552;2022-09-29T04:57:08;52.47;;;27.55;;
68940;SDS011;55982;51.476;7.552;2022-09-29T04:59:34;46.40;;;24.75;;
68940;SDS011;55982;51.476;7.552;2022-09-29T05:02:00;56.72;;;27.77;;
68940;SDS011;55982;51.476;7.552;2022-09-29T05:04:25;47.85;;;26.17;;
68940;SDS011;55982;51.476;7.552;2022-09-29T05:06:50;59.05;;;26.40;;
68940;SDS011;55982;51.476;7.552;2022-09-29T05:09:16;46.25;;;25.77;;
68940;SDS011;55982;51.476;7.552;2022-09-29T05:11:41;52.42;;;27.35;;
68940;SDS011;55982;51.476;7.552;2022-09-29T05:14:07;51.55;;;26.45;;
68940;SDS011;55982;51.476;7.552;2022-09-29T05:16:32;49.30;;;26.23;;
68940;SDS011;55982;51.476;7.552;2022-09-29T05:18:57;49.35;;;26.52;;
68940;SDS011;55982;51.476;7.552;2022-09-29T05:21:23;49.92;;;26.58;;
68940;SDS011;55982;51.476;7.552;2022-09-29T05:23:49;50.25;;;26.20;;
68940;SDS011;55982;51.476;7.552;2022-09-29T05:26:14;49.25;;;25.77;;
68940;SDS011;55982;51.476;7.552;2022-09-29T05:28:43;46.47;;;25.73;;
68940;SDS011;55982;51.476;7.552;2022-09-29T05:31:10;44.85;;;25.08;;
68940;SDS011;55982;51.476;7.552;2022-09-29T05:33:35;50.22;;;26.20;;
68940;SDS011;55982;51.476;7.552;2022-09-29T05:36:05;48.47;;;26.92;;
68940;SDS011;55982;51.476;7.552;2022-09-29T05:38:35;49.85;;;25.75;;
68940;SDS011;55982;51.476;7.552;2022-09-29T05:41:05;47.85;;;25.83;;
68940;SDS011;55982;51.476;7.552;2022-09-29T05:43:32;40.60;;;23.67;;
68940;SDS011;55982;51.476;7.552;2022-09-29T05:46:01;43.97;;;23.48;;
68940;SDS011;55982;51.476;7.552;2022-09-29T05:48:30;44.20;;;24.60;;
68940;SDS011;55982;51.476;7.552;2022-09-29T05:50:56;46.53;;;25.98;;
68940;SDS011;55982;51.476;7.552;2022-09-29T05:53:22;45.15;;;25.20;;
68940;SDS011;55982;51.476;7.552;2022-09-29T05:55:48;44.10;;;24.55;;
68940;SDS011;55982;51.476;7.552;2022-09-29T05:58:13;44.03;;;24.30;;
68940;SDS011;55982;51.476;7.552;2022-09-29T06:00:38;44.53;;;23.05;;
68940;SDS011;55982;51.476;7.552;2022-09-29T06:03:04;38.58;;;23.50;;
68940;SDS011;55982;51.476;7.552;2022-09-29T06:05:29;38.08;;;21.88;;
68940;SDS011;55982;51.476;7.552;2022-09-29T06:07:55;38.13;;;23.20;;
68940;SDS011;55982;51.476;7.552;2022-09-29T06:10:20;36.63;;;22.75;;
68940;SDS011;55982;51.476;7.552;2022-09-29T06:12:46;38.17;;;23.55;;
68940;SDS011;55982;51.476;7.552;2022-09-29T06:15:11;36.28;;;22.33;;
68940;SDS011;55982;51.476;7.552;2022-09-29T06:17:37;37.70;;;22.05;;
68940;SDS011;55982;51.476;7.552;2022-09-29T06:20:03;36.10;;;21.35;;
68940;SDS011;55982;51.476;7.552;2022-09-29T06:22:31;39.70;;;21.92;;
68940;SDS011;55982;51.476;7.552;2022-09-29T06:24:56;32.28;;;20.75;;
68940;SDS011;55982;51.476;7.552;2022-09-29T06:27:22;32.20;;;20.58;;
68940;SDS011;55982;51.476;7.552;2022-09-29T06:29:47;34.70;;;20.83;;
68940;SDS011;55982;51.476;7.552;2022-09-29T06:32:12;34.85;;;20.52;;
68940;SDS011;55982;51.476;7.552;2022-09-29T06:34:38;35.67;;;19.30;;
68940;SDS011;55982;51.476;7.552;2022-09-29T06:37:23;41.38;;;20.40;;
68940;SDS011;55982;51.476;7.552;2022-09-29T06:40:09;33.78;;;18.95;;
68940;SDS011;55982;51.476;7.552;2022-09-29T06:42:34;29.77;;;18.13;;
68940;SDS011;55982;51.476;7.552;2022-09-29T06:45:00;30.70;;;19.08;;
68940;SDS011;55982;51.476;7.552;2022-09-29T06:47:25;34.88;;;19.95;;
68940;SDS011;55982;51.476;7.552;2022-09-29T06:49:51;29.20;;;18.75;;
68940;SDS011;55982;51.476;7.552;2022-09-29T06:52:16;34.28;;;18.92;;
68940;SDS011;55982;51.476;7.552;2022-09-29T06:54:42;36.53;;;19.75;;
68940;SDS011;55982;51.476;7.552;2022-09-29T06:57:07;36.45;;;20.02;;
68940;SDS011;55982;51.476;7.552;2022-09-29T06:59:34;32.80;;;19.60;;
68940;SDS011;55982;51.476;7.552;2022-09-29T07:01:59;34.58;;;19.67;;
68940;SDS011;55982;51.476;7.552;2022-09-29T07:04:25;32.63;;;19.17;;
68940;SDS011;55982;51.476;7.552;2022-09-29T07:06:50;30.27;;;18.30;;
68940;SDS011;55982;51.476;7.552;2022-09-29T07:09:16;25.85;;;15.88;;
68940;SDS011;55982;51.476;7.552;2022-09-29T07:11:42;24.50;;;15.77;;
68940;SDS011;55982;51.476;7.552;2022-09-29T07:14:12;23.63;;;15.48;;
68940;SDS011;55982;51.476;7.552;2022-09-29T07:16:38;22.52;;;13.73;;
68940;SDS011;55982;51.476;7.552;2022-09-29T07:19:03;21.33;;;13.73;;
68940;SDS011;55982;51.476;7.552;2022-09-29T07:21:29;19.77;;;13.07;;
68940;SDS011;55982;51.476;7.552;2022-09-29T07:23:54;25.08;;;13.90;;
68940;SDS011;55982;51.476;7.552;2022-09-29T07:26:20;19.55;;;12.40;;
68940;SDS011;55982;51.476;7.552;2022-09-29T07:28:46;17.38;;;12.07;;
68940;SDS011;55982;51.476;7.552;2022-09-29T07:31:13;20.40;;;10.45;;
68940;SDS011;55982;51.476;7.552;2022-09-29T07:33:41;14.30;;;9.98;;
68940;SDS011;55982;51.476;7.552;2022-09-29T07:36:11;13.40;;;9.00;;
68940;SDS011;55982;51.476;7.552;2022-09-29T07:38:37;16.33;;;8.90;;
68940;SDS011;55982;51.476;7.552;2022-09-29T07:41:03;9.63;;;7.40;;
68940;SDS011;55982;51.476;7.552;2022-09-29T07:43:30;10.57;;;6.65;;
68940;SDS011;55982;51.476;7.552;2022-09-29T07:45:56;10.02;;;7.28;;
68940;SDS011;55982;51.476;7.552;2022-09-29T07:48:22;10.68;;;7.53;;
68940;SDS011;55982;51.476;7.552;2022-09-29T07:50:47;8.98;;;6.63;;
68940;SDS011;55982;51.476;7.552;2022-09-29T07:53:13;11.02;;;5.80;;
68940;SDS011;55982;51.476;7.552;2022-09-29T07:55:38;11.63;;;5.68;;
68940;SDS011;55982;51.476;7.552;2022-09-29T07:58:04;10.73;;;5.50;;
68940;SDS011;55982;51.476;7.552;2022-09-29T08:00:30;8.20;;;5.57;;
68940;SDS011;55982;51.476;7.552;2022-09-29T08:03:03;6.35;;;4.88;;
68940;SDS011;55982;51.476;7.552;2022-09-29T08:05:32;6.53;;;5.00;;
68940;SDS011;55982;51.476;7.552;2022-09-29T08:08:04;6.60;;;5.00;;
68940;SDS011;55982;51.476;7.552;2022-09-29T08:10:30;6.82;;;5.00;;
68940;SDS011;55982;51.476;7.552;2022-09-29T08:12:57;6.40;;;5.40;;
68940;SDS011;55982;51.476;7.552;2022-09-29T08:15:23;6.88;;;5.65;;
68940;SDS011;55982;51.476;7.552;2022-09-29T08:17:53;7.10;;;4.85;;
68940;SDS011;55982;51.476;7.552;2022-09-29T08:20:19;7.22;;;5.45;;
68940;SDS011;55982;51.476;7.552;2022-09-29T08:22:45;6.90;;;5.32;;
68940;SDS011;55982;51.476;7.552;2022-09-29T08:25:12;6.50;;;5.03;;
68940;SDS011;55982;51.476;7.552;2022-09-29T08:27:38;7.00;;;5.15;;
68940;SDS011;55982;51.476;7.552;2022-09-29T08:30:03;7.03;;;5.22;;
68940;SDS011;55982;51.476;7.552;2022-09-29T08:32:29;6.43;;;5.18;;
68940;SDS011;55982;51.476;7.552;2022-09-29T08:34:55;5.57;;;4.38;;
68940;SDS011;55982;51.476;7.552;2022-09-29T08:37:20;5.53;;;4.53;;
68940;SDS011;55982;51.476;7.552;2022-09-29T08:39:45;9.60;;;4.63;;
68940;SDS011;55982;51.476;7.552;2022-09-29T08:45:36;6.43;;;4.90;;
68940;SDS011;55982;51.476;7.552;2022-09-29T08:48:09;5.07;;;4.57;;
68940;SDS011;55982;51.476;7.552;2022-09-29T08:50:43;6.80;;;5.10;;
68940;SDS011;55982;51.476;7.552;2022-09-29T08:53:15;10.38;;;5.18;;
68940;SDS011;55982;51.476;7.552;2022-09-29T08:56:02;5.20;;;4.57;;
68940;SDS011;55982;51.476;7.552;2022-09-29T08:58:30;6.90;;;5.28;;
68940;SDS011;55982;51.476;7.552;2022-09-29T09:12:00;8.52;;;5.28;;
68940;SDS011;55982;51.476;7.552;2022-09-29T09:17:22;6.35;;;5.07;;
68940;SDS011;55982;51.476;7.552;2022-09-29T09:23:18;5.32;;;4.82;;
68940;SDS011;55982;51.476;7.552;2022-09-29T09:25:50;7.22;;;4.68;;
68940;SDS011;55982;51.476;7.552;2022-09-29T09:28:21;6.50;;;4.63;;
68940;SDS011;55982;51.476;7.552;2022-09-29T09:33:25;7.07;;;4.40;;
68940;SDS011;55982;51.476;7.552;2022-09-29T09:36:18;6.20;;;4.22;;
68940;SDS011;55982;51.476;7.552;2022-09-29T09:38:53;4.88;;;4.05;;
68940;SDS011;55982;51.476;7.552;2022-09-29T09:41:23;8.02;;;5.22;;
68940;SDS011;55982;51.476;7.552;2022-09-29T09:44:13;8.50;;;4.72;;
68940;SDS011;55982;51.476;7.552;2022-09-29T09:46:53;7.10;;;4.45;;
68940;SDS011;55982;51.476;7.552;2022-09-29T09:49:31;6.53;;;5.22;;
68940;SDS011;55982;51.476;7.552;2022-09-29T09:52:08;6.07;;;5.10;;
68940;SDS011;55982;51.476;7.552;2022-09-29T09:55:05;8.05;;;5.40;;
68940;SDS011;55982;51.476;7.552;2022-09-29T10:00:19;6.65;;;5.55;;
68940;SDS011;55982;51.476;7.552;2022-09-29T10:02:53;7.32;;;5.35;;
68940;SDS011;55982;51.476;7.552;2022-09-29T10:05:21;7.38;;;5.07;;
68940;SDS011;55982;51.476;7.552;2022-09-29T10:07:48;8.75;;;4.90;;
68940;SDS011;55982;51.476;7.552;2022-09-29T10:12:45;6.15;;;4.60;;
68940;SDS011;55982;51.476;7.552;2022-09-29T10:15:13;7.57;;;4.10;;
68940;SDS011;55982;51.476;7.552;2022-09-29T10:17:45;7.53;;;4.20;;
68940;SDS011;55982;51.476;7.552;2022-09-29T10:20:18;7.47;;;4.50;;
68940;SDS011;55982;51.476;7.552;2022-09-29T10:23:02;6.30;;;4.13;;
68940;SDS011;55982;51.476;7.552;2022-09-29T10:26:11;4.22;;;3.70;;
68940;SDS011;55982;51.476;7.552;2022-09-29T10:31:42;5.72;;;3.08;;
68940;SDS011;55982;51.476;7.552;2022-09-29T10:39:44;4.50;;;2.10;;
68940;SDS011;55982;51.476;7.552;2022-09-29T10:42:25;4.72;;;2.83;;
68940;SDS011;55982;51.476;7.552;2022-09-29T10:47:28;2.65;;;2.25;;
68940;SDS011;55982;51.476;7.552;2022-09-29T10:53:03;6.18;;;2.53;;
68940;SDS011;55982;51.476;7.552;2022-09-29T10:55:47;4.97;;;2.30;;
68940;SDS011;55982;51.476;7.552;2022-09-29T10:58:23;6.28;;;2.90;;
68940;SDS011;55982;51.476;7.552;2022-09-29T11:06:31;3.20;;;2.38;;
68940;SDS011;55982;51.476;7.552;2022-09-29T11:11:34;4.60;;;2.85;;
68940;SDS011;55982;51.476;7.552;2022-09-29T11:14:01;3.90;;;2.20;;
68940;SDS011;55982;51.476;7.552;2022-09-29T11:16:29;3.67;;;2.35;;
68940;SDS011;55982;51.476;7.552;2022-09-29T11:19:06;4.53;;;2.20;;
68940;SDS011;55982;51.476;7.552;2022-09-29T11:34:52;2.45;;;2.00;;
68940;SDS011;55982;51.476;7.552;2022-09-29T11:37:55;3.67;;;1.90;;
68940;SDS011;55982;51.476;7.552;2022-09-29T11:41:12;3.05;;;2.00;;
68940;SDS011;55982;51.476;7.552;2022-09-29T11:44:08;3.42;;;1.90;;
68940;SDS011;55982;51.476;7.552;2022-09-29T11:46:50;3.35;;;1.90;;
68940;SDS011;55982;51.476;7.552;2022-09-29T12:00:11;3.17;;;1.38;;
68940;SDS011;55982;51.476;7.552;2022-09-29T12:10:45;3.85;;;2.00;;
68940;SDS011;55982;51.476;7.552;2022-09-29T12:13:57;3.40;;;2.25;;
68940;SDS011;55982;51.476;7.552;2022-09-29T12:16:27;3.65;;;2.42;;
68940;SDS011;55982;51.476;7.552;2022-09-29T12:18:57;3.85;;;2.35;;
68940;SDS011;55982;51.476;7.552;2022-09-29T12:24:15;2.83;;;1.73;;
68940;SDS011;55982;51.476;7.552;2022-09-29T12:26:45;5.68;;;1.85;;
68940;SDS011;55982;51.476;7.552;2022-09-29T12:29:31;4.55;;;2.30;;
68940;SDS011;55982;51.476;7.552;2022-09-29T12:32:13;4.28;;;2.17;;
68940;SDS011;55982;51.476;7.552;2022-09-29T12:42:31;3.20;;;1.42;;
68940;SDS011;55982;51.476;7.552;2022-09-29T12:50:26;4.25;;;1.50;;
68940;SDS011;55982;51.476;7.552;2022-09-29T12:52:59;4.85;;;1.60;;
68940;SDS011;55982;51.476;7.552;2022-09-29T12:57:59;3.22;;;1.70;;
68940;SDS011;55982;51.476;7.552;2022-09-29T13:00:30;4.30;;;1.45;;
68940;SDS011;55982;51.476;7.552;2022-09-29T13:08:24;5.03;;;2.00;;
68940;SDS011;55982;51.476;7.552;2022-09-29T13:14:56;4.03;;;1.77;;
68940;SDS011;55982;51.476;7.552;2022-09-29T13:25:42;2.42;;;1.80;;
68940;SDS011;55982;51.476;7.552;2022-09-29T13:28:28;3.33;;;1.70;;
68940;SDS011;55982;51.476;7.552;2022-09-29T13:30:55;4.10;;;1.73;;
68940;SDS011;55982;51.476;7.552;2022-09-29T13:33:26;3.33;;;1.40;;
68940;SDS011;55982;51.476;7.552;2022-09-29T13:35:51;4.03;;;1.67;;
68940;SDS011;55982;51.476;7.552;2022-09-29T13:38:22;2.95;;;1.70;;
68940;SDS011;55982;51.476;7.552;2022-09-29T13:46:26;3.03;;;1.58;;
68940;SDS011;55982;51.476;7.552;2022-09-29T13:49:02;3.60;;;1.92;;
68940;SDS011;55982;51.476;7.552;2022-09-29T13:51:50;6.05;;;2.30;;
68940;SDS011;55982;51.476;7.552;2022-09-29T13:54:45;3.13;;;2.30;;
68940;SDS011;55982;51.476;7.552;2022-09-29T13:59:36;3.25;;;2.50;;
68940;SDS011;55982;51.476;7.552;2022-09-29T14:02:25;4.30;;;2.40;;
68940;SDS011;55982;51.476;7.552;2022-09-29T14:04:57;3.22;;;2.10;;
68940;SDS011;55982;51.476;7.552;2022-09-29T14:18:54;3.78;;;2.25;;
68940;SDS011;55982;51.476;7.552;2022-09-29T14:29:49;5.80;;;1.83;;
68940;SDS011;55982;51.476;7.552;2022-09-29T14:32:21;5.15;;;2.05;;
68940;SDS011;55982;51.476;7.552;2022-09-29T14:37:39;5.07;;;1.80;;
68940;SDS011;55982;51.476;7.552;2022-09-29T14:40:05;2.92;;;1.90;;
68940;SDS011;55982;51.476;7.552;2022-09-29T14:43:10;2.83;;;1.70;;
68940;SDS011;55982;51.476;7.552;2022-09-29T14:49:22;4.82;;;2.03;;
68940;SDS011;55982;51.476;7.552;2022-09-29T14:52:56;3.95;;;2.03;;
68940;SDS011;55982;51.476;7.552;2022-09-29T15:03:46;3.25;;;1.40;;
68940;SDS011;55982;51.476;7.552;2022-09-29T15:06:15;1.67;;;1.30;;
68940;SDS011;55982;51.476;7.552;2022-09-29T15:08:52;2.78;;;1.42;;
68940;SDS011;55982;51.476;7.552;2022-09-29T15:13:56;2.67;;;1.33;;
68940;SDS011;55982;51.476;7.552;2022-09-29T15:19:40;3.65;;;1.70;;
68940;SDS011;55982;51.476;7.552;2022-09-29T15:25:19;3.75;;;1.90;;
68940;SDS011;55982;51.476;7.552;2022-09-29T15:27:53;3.72;;;1.52;;
68940;SDS011;55982;51.476;7.552;2022-09-29T15:30:23;2.70;;;1.48;;
68940;SDS011;55982;51.476;7.552;2022-09-29T15:32:49;2.65;;;1.40;;
68940;SDS011;55982;51.476;7.552;2022-09-29T15:35:20;3.75;;;1.60;;
68940;SDS011;55982;51.476;7.552;2022-09-29T15:40:18;5.68;;;1.48;;
68940;SDS011;55982;51.476;7.552;2022-09-29T15:42:46;2.83;;;1.38;;
68940;SDS011;55982;51.476;7.552;2022-09-29T15:45:16;2.75;;;1.30;;
68940;SDS011;55982;51.476;7.552;2022-09-29T15:47:46;4.13;;;1.35;;
68940;SDS011;55982;51.476;7.552;2022-09-29T15:50:18;3.42;;;1.02;;
68940;SDS011;55982;51.476;7.552;2022-09-29T15:52:46;1.63;;;1.20;;
68940;SDS011;55982;51.476;7.552;2022-09-29T15:55:13;2.45;;;1.55;;
68940;SDS011;55982;51.476;7.552;2022-09-29T15:57:47;2.35;;;1.05;;
68940;SDS011;55982;51.476;7.552;2022-09-29T16:02:46;4.88;;;1.33;;
68940;SDS011;55982;51.476;7.552;2022-09-29T16:05:13;3.28;;;1.45;;
68940;SDS011;55982;51.476;7.552;2022-09-29T16:07:52;4.40;;;1.40;;
68940;SDS011;55982;51.476;7.552;2022-09-29T16:10:27;1.52;;;1.13;;
68940;SDS011;55982;51.476;7.552;2022-09-29T16:12:59;4.43;;;1.70;;
68940;SDS011;55982;51.476;7.552;2022-09-29T16:18:42;3.60;;;1.60;;
68940;SDS011;55982;51.476;7.552;2022-09-29T16:21:04;2.65;;;1.40;;
68940;SDS011;55982;51.476;7.552;2022-09-29T16:29:42;2.58;;;1.67;;
68940;SDS011;55982;51.476;7.552;2022-09-29T16:31:40;4.32;;;2.20;;
68940;SDS011;55982;51.476;7.552;2022-09-29T16:36:48;6.60;;;2.53;;
68940;SDS011;55982;51.476;7.552;2022-09-29T16:39:16;6.10;;;2.65;;
68940;SDS011;55982;51.476;7.552;2022-09-29T16:41:48;6.25;;;2.60;;
68940;SDS011;55982;51.476;7.552;2022-09-29T16:49:27;3.13;;;2.42;;
68940;SDS011;55982;51.476;7.552;2022-09-29T16:54:42;3.60;;;2.38;;
68940;SDS011;55982;51.476;7.552;2022-09-29T16:59:47;11.07;;;3.15;;
68940;SDS011;55982;51.476;7.552;2022-09-29T17:02:15;4.78;;;2.58;;
68940;SDS011;55982;51.476;7.552;2022-09-29T17:04:40;4.35;;;2.83;;
68940;SDS011;55982;51.476;7.552;2022-09-29T17:07:07;5.30;;;2.60;;
68940;SDS011;55982;51.476;7.552;2022-09-29T17:09:38;5.72;;;3.10;;
68940;SDS011;55982;51.476;7.552;2022-09-29T17:12:03;5.38;;;3.00;;
68940;SDS011;55982;51.476;7.552;2022-09-29T17:14:29;6.75;;;2.78;;
68940;SDS011;55982;51.476;7.552;2022-09-29T17:16:55;4.68;;;2.60;;
68940;SDS011;55982;51.476;7.552;2022-09-29T17:19:21;4.72;;;2.90;;
68940;SDS011;55982;51.476;7.552;2022-09-29T17:21:46;7.20;;;2.67;;
68940;SDS011;55982;51.476;7.552;2022-09-29T17:24:12;6.50;;;2.92;;
68940;SDS011;55982;51.476;7.552;2022-09-29T17:29:28;6.90;;;2.90;;
68940;SDS011;55982;51.476;7.552;2022-09-29T17:31:53;6.63;;;2.78;;
68940;SDS011;55982;51.476;7.552;2022-09-29T17:34:19;5.05;;;3.10;;
68940;SDS011;55982;51.476;7.552;2022-09-29T17:36:46;7.13;;;3.13;;
68940;SDS011;55982;51.476;7.552;2022-09-29T17:39:12;4.55;;;2.90;;
68940;SDS011;55982;51.476;7.552;2022-09-29T17:41:37;6.40;;;2.97;;
68940;SDS011;55982;51.476;7.552;2022-09-29T17:44:04;6.50;;;3.50;;
68940;SDS011;55982;51.476;7.552;2022-09-29T17:46:32;6.40;;;3.97;;
68940;SDS011;55982;51.476;7.552;2022-09-29T17:48:58;9.25;;;4.03;;
68940;SDS011;55982;51.476;7.552;2022-09-29T17:51:23;9.02;;;3.85;;
68940;SDS011;55982;51.476;7.552;2022-09-29T17:53:50;7.40;;;4.13;;
68940;SDS011;55982;51.476;7.552;2022-09-29T17:56:19;9.00;;;4.70;;
68940;SDS011;55982;51.476;7.552;2022-09-29T17:58:50;6.68;;;4.03;;
68940;SDS011;55982;51.476;7.552;2022-09-29T18:01:20;7.72;;;4.30;;
68940;SDS011;55982;51.476;7.552;2022-09-29T18:03:47;5.85;;;3.35;;
68940;SDS011;55982;51.476;7.552;2022-09-29T18:06:19;9.50;;;3.90;;
68940;SDS011;55982;51.476;7.552;2022-09-29T18:08:46;4.95;;;4.10;;
68940;SDS011;55982;51.476;7.552;2022-09-29T18:11:16;5.50;;;3.97;;
68940;SDS011;55982;51.476;7.552;2022-09-29T18:13:42;6.97;;;3.30;;
68940;SDS011;55982;51.476;7.552;2022-09-29T18:16:12;5.88;;;3.88;;
68940;SDS011;55982;51.476;7.552;2022-09-29T18:18:43;6.05;;;3.55;;
68940;SDS011;55982;51.476;7.552;2022-09-29T18:21:12;5.05;;;3.35;;
68940;SDS011;55982;51.476;7.552;2022-09-29T18:23:37;4.50;;;3.22;;
68940;SDS011;55982;51.476;7.552;2022-09-29T18:26:03;6.55;;;3.38;;
68940;SDS011;55982;51.476;7.552;2022-09-29T18:28:30;7.15;;;3.70;;
68940;SDS011;55982;51.476;7.552;2022-09-29T18:31:11;6.15;;;3.65;;
68940;SDS011;55982;51.476;7.552;2022-09-29T18:33:45;8.75;;;3.60;;
68940;SDS011;55982;51.476;7.552;2022-09-29T18:36:10;4.60;;;3.45;;
68940;SDS011;55982;51.476;7.552;2022-09-29T18:38:36;7.30;;;3.60;;
68940;SDS011;55982;51.476;7.552;2022-09-29T18:41:01;5.03;;;3.70;;
68940;SDS011;55982;51.476;7.552;2022-09-29T18:43:27;7.70;;;3.70;;
68940;SDS011;55982;51.476;7.552;2022-09-29T18:45:54;6.45;;;3.50;;
68940;SDS011;55982;51.476;7.552;2022-09-29T18:48:19;4.60;;;3.13;;
68940;SDS011;55982;51.476;7.552;2022-09-29T18:50:46;7.32;;;3.85;;
68940;SDS011;55982;51.476;7.552;2022-09-29T18:53:14;4.85;;;3.47;;